sensor_id;sensor_type;location;lat;lon;timestamp;P1;durP1;ratioP1;P2;durP2;ratioP2
26014;SDS011;13793;55.388;37.844;2024-01-15T00:00:20;30.00;;;13.97;;
26014;SDS011;13793;55.388;37.844;2024-01-15T00:02:51;25.47;;;14.10;;
26014;SDS011;13793;55.388;37.844;2024-01-15T00:05:22;23.70;;;12.97;;
26014;SDS011;13793;55.388;37.844;2024-01-15T00:07:54;29.97;;;14.47;;
26014;SDS011;13793;55.388;37.844;2024-01-15T00:10:25;30.97;;;13.90;;
26014;SDS011;13793;55.388;37.844;2024-01-15T00:12:55;29.43;;;13.53;;
26014;SDS011;13793;55.388;37.844;2024-01-15T00:15:26;28.80;;;14.37;;
26014;SDS011;13793;55.388;37.844;2024-01-15T00:17:59;28.80;;;13.83;;
26014;SDS011;13793;55.388;37.844;2024-01-15T00:20:30;29.63;;;14.53;;
26014;SDS011;13793;55.388;37.844;2024-01-15T00:23:01;27.53;;;13.77;;
26014;SDS011;13793;55.388;37.844;2024-01-15T00:25:31;28.77;;;14.60;;
26014;SDS011;13793;55.388;37.844;2024-01-15T00:28:02;28.33;;;15.10;;
26014;SDS011;13793;55.388;37.844;2024-01-15T00:30:34;32.63;;;15.43;;
26014;SDS011;13793;55.388;37.844;2024-01-15T00:33:05;29.73;;;15.13;;
26014;SDS011;13793;55.388;37.844;2024-01-15T00:35:36;30.50;;;15.00;;
26014;SDS011;13793;55.388;37.844;2024-01-15T00:38:07;26.07;;;14.27;;
26014;SDS011;13793;55.388;37.844;2024-01-15T00:40:38;27.53;;;15.33;;
26014;SDS011;13793;55.388;37.844;2024-01-15T00:43:09;28.60;;;14.40;;
26014;SDS011;13793;55.388;37.844;2024-01-15T00:45:40;28.70;;;14.80;;
26014;SDS011;13793;55.388;37.844;2024-01-15T00:48:11;29.23;;;14.97;;
26014;SDS011;13793;55.388;37.844;2024-01-15T00:50:42;29.90;;;15.00;;
26014;SDS011;13793;55.388;37.844;2024-01-15T00:53:16;29.77;;;15.80;;
26014;SDS011;13793;55.388;37.844;2024-01-15T00:55:48;28.23;;;15.93;;
26014;SDS011;13793;55.388;37.844;2024-01-15T00:58:20;27.93;;;15.60;;
26014;SDS011;13793;55.388;37.844;2024-01-15T01:00:50;33.67;;;16.83;;
26014;SDS011;13793;55.388;37.844;2024-01-15T01:03:22;30.73;;;16.47;;
26014;SDS011;13793;55.388;37.844;2024-01-15T01:05:53;31.20;;;15.80;;
26014;SDS011;13793;55.388;37.844;2024-01-15T01:08:24;30.23;;;16.37;;
26014;SDS011;13793;55.388;37.844;2024-01-15T01:10:55;28.27;;;14.67;;
26014;SDS011;13793;55.388;37.844;2024-01-15T01:13:26;31.77;;;15.90;;
26014;SDS011;13793;55.388;37.844;2024-01-15T01:15:57;29.73;;;16.70;;
26014;SDS011;13793;55.388;37.844;2024-01-15T01:18:28;31.87;;;16.53;;
26014;SDS011;13793;55.388;37.844;2024-01-15T01:20:59;33.03;;;16.57;;
26014;SDS011;13793;55.388;37.844;2024-01-15T01:23:30;33.80;;;16.83;;
26014;SDS011;13793;55.388;37.844;2024-01-15T01:26:00;33.97;;;16.53;;
26014;SDS011;13793;55.388;37.844;2024-01-15T01:28:31;33.30;;;17.20;;
26014;SDS011;13793;55.388;37.844;2024-01-15T01:31:03;33.90;;;16.70;;
26014;SDS011;13793;55.388;37.844;2024-01-15T01:33:34;36.80;;;16.13;;
26014;SDS011;13793;55.388;37.844;2024-01-15T01:36:09;31.90;;;15.43;;
26014;SDS011;13793;55.388;37.844;2024-01-15T01:38:40;33.67;;;17.03;;
26014;SDS011;13793;55.388;37.844;2024-01-15T01:41:12;33.07;;;16.90;;
26014;SDS011;13793;55.388;37.844;2024-01-15T01:43:43;33.63;;;16.50;;
26014;SDS011;13793;55.388;37.844;2024-01-15T01:46:14;30.63;;;17.03;;
26014;SDS011;13793;55.388;37.844;2024-01-15T01:48:45;33.77;;;17.20;;
26014;SDS011;13793;55.388;37.844;2024-01-15T01:51:16;31.57;;;16.57;;
26014;SDS011;13793;55.388;37.844;2024-01-15T01:53:47;34.10;;;17.00;;
26014;SDS011;13793;55.388;37.844;2024-01-15T01:56:18;30.67;;;17.57;;
26014;SDS011;13793;55.388;37.844;2024-01-15T01:58:49;39.53;;;18.63;;
26014;SDS011;13793;55.388;37.844;2024-01-15T02:01:20;36.80;;;18.53;;
26014;SDS011;13793;55.388;37.844;2024-01-15T02:03:51;38.13;;;18.70;;
26014;SDS011;13793;55.388;37.844;2024-01-15T02:06:24;38.00;;;18.53;;
26014;SDS011;13793;55.388;37.844;2024-01-15T02:08:56;35.63;;;19.33;;
26014;SDS011;13793;55.388;37.844;2024-01-15T02:11:26;36.07;;;19.37;;
26014;SDS011;13793;55.388;37.844;2024-01-15T02:13:58;36.43;;;18.60;;
26014;SDS011;13793;55.388;37.844;2024-01-15T02:16:29;37.27;;;18.10;;
26014;SDS011;13793;55.388;37.844;2024-01-15T02:19:00;38.60;;;19.20;;
26014;SDS011;13793;55.388;37.844;2024-01-15T02:21:31;36.10;;;18.70;;
26014;SDS011;13793;55.388;37.844;2024-01-15T02:24:05;37.57;;;18.77;;
26014;SDS011;13793;55.388;37.844;2024-01-15T02:26:36;38.67;;;18.80;;
26014;SDS011;13793;55.388;37.844;2024-01-15T02:29:08;36.83;;;18.70;;
26014;SDS011;13793;55.388;37.844;2024-01-15T02:31:39;39.63;;;20.77;;
26014;SDS011;13793;55.388;37.844;2024-01-15T02:34:10;38.77;;;19.77;;
26014;SDS011;13793;55.388;37.844;2024-01-15T02:36:41;34.70;;;18.40;;
26014;SDS011;13793;55.388;37.844;2024-01-15T02:39:12;35.57;;;18.63;;
26014;SDS011;13793;55.388;37.844;2024-01-15T02:41:44;38.10;;;19.13;;
26014;SDS011;13793;55.388;37.844;2024-01-15T02:44:15;37.77;;;19.60;;
26014;SDS011;13793;55.388;37.844;2024-01-15T02:46:46;39.80;;;19.87;;
26014;SDS011;13793;55.388;37.844;2024-01-15T02:49:18;37.77;;;19.40;;
26014;SDS011;13793;55.388;37.844;2024-01-15T02:51:49;38.97;;;20.57;;
26014;SDS011;13793;55.388;37.844;2024-01-15T02:54:20;36.30;;;20.03;;
26014;SDS011;13793;55.388;37.844;2024-01-15T02:56:50;40.30;;;20.80;;
26014;SDS011;13793;55.388;37.844;2024-01-15T02:59:21;39.37;;;20.40;;
26014;SDS011;13793;55.388;37.844;2024-01-15T03:01:52;35.47;;;19.37;;
26014;SDS011;13793;55.388;37.844;2024-01-15T03:04:24;38.27;;;19.77;;
26014;SDS011;13793;55.388;37.844;2024-01-15T03:06:54;37.23;;;19.53;;
26014;SDS011;13793;55.388;37.844;2024-01-15T03:09:25;39.87;;;20.73;;
26014;SDS011;13793;55.388;37.844;2024-01-15T03:11:57;38.90;;;19.60;;
26014;SDS011;13793;55.388;37.844;2024-01-15T03:14:28;38.60;;;20.50;;
26014;SDS011;13793;55.388;37.844;2024-01-15T03:16:59;37.10;;;19.17;;
26014;SDS011;13793;55.388;37.844;2024-01-15T03:19:30;40.00;;;20.20;;
26014;SDS011;13793;55.388;37.844;2024-01-15T03:22:01;42.83;;;21.50;;
26014;SDS011;13793;55.388;37.844;2024-01-15T03:24:32;41.97;;;20.83;;
26014;SDS011;13793;55.388;37.844;2024-01-15T03:27:03;43.70;;;21.17;;
26014;SDS011;13793;55.388;37.844;2024-01-15T03:29:34;43.70;;;21.10;;
26014;SDS011;13793;55.388;37.844;2024-01-15T03:32:06;38.93;;;20.90;;
26014;SDS011;13793;55.388;37.844;2024-01-15T03:34:36;42.23;;;20.53;;
26014;SDS011;13793;55.388;37.844;2024-01-15T03:37:07;40.00;;;21.00;;
26014;SDS011;13793;55.388;37.844;2024-01-15T03:39:39;37.97;;;20.17;;
26014;SDS011;13793;55.388;37.844;2024-01-15T03:42:10;39.97;;;20.10;;
26014;SDS011;13793;55.388;37.844;2024-01-15T03:44:41;39.77;;;20.67;;
26014;SDS011;13793;55.388;37.844;2024-01-15T03:47:12;38.40;;;20.30;;
26014;SDS011;13793;55.388;37.844;2024-01-15T03:49:43;40.10;;;20.00;;
26014;SDS011;13793;55.388;37.844;2024-01-15T03:52:14;37.20;;;20.10;;
26014;SDS011;13793;55.388;37.844;2024-01-15T03:54:45;38.97;;;19.13;;
26014;SDS011;13793;55.388;37.844;2024-01-15T03:57:16;41.17;;;21.47;;
26014;SDS011;13793;55.388;37.844;2024-01-15T03:59:48;41.13;;;21.27;;
26014;SDS011;13793;55.388;37.844;2024-01-15T04:02:20;41.80;;;21.97;;
26014;SDS011;13793;55.388;37.844;2024-01-15T04:04:50;43.20;;;22.63;;
26014;SDS011;13793;55.388;37.844;2024-01-15T04:07:21;45.40;;;22.87;;
26014;SDS011;13793;55.388;37.844;2024-01-15T04:09:52;42.13;;;21.53;;
26014;SDS011;13793;55.388;37.844;2024-01-15T04:12:24;47.50;;;24.47;;
26014;SDS011;13793;55.388;37.844;2024-01-15T04:14:55;46.03;;;22.60;;
26014;SDS011;13793;55.388;37.844;2024-01-15T04:17:26;43.20;;;22.17;;
26014;SDS011;13793;55.388;37.844;2024-01-15T04:19:57;50.43;;;25.17;;
26014;SDS011;13793;55.388;37.844;2024-01-15T04:22:30;45.37;;;22.80;;
26014;SDS011;13793;55.388;37.844;2024-01-15T04:25:01;42.20;;;21.87;;
26014;SDS011;13793;55.388;37.844;2024-01-15T04:27:33;45.43;;;21.83;;
26014;SDS011;13793;55.388;37.844;2024-01-15T04:30:04;47.37;;;24.23;;
26014;SDS011;13793;55.388;37.844;2024-01-15T04:32:36;48.40;;;23.33;;
26014;SDS011;13793;55.388;37.844;2024-01-15T04:35:07;48.60;;;24.80;;
26014;SDS011;13793;55.388;37.844;2024-01-15T04:37:39;43.57;;;23.00;;
26014;SDS011;13793;55.388;37.844;2024-01-15T04:40:10;44.63;;;23.23;;
26014;SDS011;13793;55.388;37.844;2024-01-15T04:42:42;47.73;;;23.47;;
26014;SDS011;13793;55.388;37.844;2024-01-15T04:45:14;47.40;;;24.10;;
26014;SDS011;13793;55.388;37.844;2024-01-15T04:47:47;45.00;;;24.10;;
26014;SDS011;13793;55.388;37.844;2024-01-15T04:50:18;48.20;;;25.07;;
26014;SDS011;13793;55.388;37.844;2024-01-15T04:52:50;46.73;;;21.93;;
26014;SDS011;13793;55.388;37.844;2024-01-15T04:55:21;50.50;;;25.07;;
26014;SDS011;13793;55.388;37.844;2024-01-15T04:57:52;47.80;;;24.57;;
26014;SDS011;13793;55.388;37.844;2024-01-15T05:00:24;47.10;;;24.03;;
26014;SDS011;13793;55.388;37.844;2024-01-15T05:02:55;48.70;;;24.67;;
26014;SDS011;13793;55.388;37.844;2024-01-15T05:05:26;46.87;;;23.33;;
26014;SDS011;13793;55.388;37.844;2024-01-15T05:07:57;43.60;;;23.90;;
26014;SDS011;13793;55.388;37.844;2024-01-15T05:10:29;47.57;;;25.20;;
26014;SDS011;13793;55.388;37.844;2024-01-15T05:13:01;50.37;;;25.97;;
26014;SDS011;13793;55.388;37.844;2024-01-15T05:15:32;49.63;;;25.20;;
26014;SDS011;13793;55.388;37.844;2024-01-15T05:18:03;50.30;;;25.23;;
26014;SDS011;13793;55.388;37.844;2024-01-15T05:20:35;44.77;;;23.83;;
26014;SDS011;13793;55.388;37.844;2024-01-15T05:23:06;47.10;;;23.90;;
26014;SDS011;13793;55.388;37.844;2024-01-15T05:25:37;44.33;;;23.73;;
26014;SDS011;13793;55.388;37.844;2024-01-15T05:28:07;47.03;;;24.43;;
26014;SDS011;13793;55.388;37.844;2024-01-15T05:30:38;45.70;;;24.67;;
26014;SDS011;13793;55.388;37.844;2024-01-15T05:33:09;47.97;;;25.57;;
26014;SDS011;13793;55.388;37.844;2024-01-15T05:35:40;49.27;;;24.73;;
26014;SDS011;13793;55.388;37.844;2024-01-15T05:38:11;44.30;;;24.10;;
26014;SDS011;13793;55.388;37.844;2024-01-15T05:40:42;49.30;;;25.37;;
26014;SDS011;13793;55.388;37.844;2024-01-15T05:43:13;48.17;;;25.50;;
26014;SDS011;13793;55.388;37.844;2024-01-15T05:45:44;49.83;;;24.93;;
26014;SDS011;13793;55.388;37.844;2024-01-15T05:48:15;45.90;;;24.93;;
26014;SDS011;13793;55.388;37.844;2024-01-15T05:50:49;48.80;;;26.07;;
26014;SDS011;13793;55.388;37.844;2024-01-15T05:53:20;55.00;;;26.73;;
26014;SDS011;13793;55.388;37.844;2024-01-15T05:55:51;48.77;;;25.93;;
26014;SDS011;13793;55.388;37.844;2024-01-15T05:58:23;49.23;;;25.90;;
26014;SDS011;13793;55.388;37.844;2024-01-15T06:00:53;51.37;;;27.03;;
26014;SDS011;13793;55.388;37.844;2024-01-15T06:03:25;45.17;;;25.83;;
26014;SDS011;13793;55.388;37.844;2024-01-15T06:05:55;47.93;;;25.80;;
26014;SDS011;13793;55.388;37.844;2024-01-15T06:08:26;46.87;;;25.57;;
26014;SDS011;13793;55.388;37.844;2024-01-15T06:10:57;48.30;;;24.43;;
26014;SDS011;13793;55.388;37.844;2024-01-15T06:13:28;50.73;;;27.30;;
26014;SDS011;13793;55.388;37.844;2024-01-15T06:15:59;45.70;;;24.27;;
26014;SDS011;13793;55.388;37.844;2024-01-15T06:18:30;48.50;;;25.63;;
26014;SDS011;13793;55.388;37.844;2024-01-15T06:21:01;44.87;;;23.60;;
26014;SDS011;13793;55.388;37.844;2024-01-15T06:23:32;45.37;;;24.40;;
26014;SDS011;13793;55.388;37.844;2024-01-15T06:26:03;45.30;;;24.90;;
26014;SDS011;13793;55.388;37.844;2024-01-15T06:28:34;48.03;;;25.57;;
26014;SDS011;13793;55.388;37.844;2024-01-15T06:31:06;48.43;;;25.30;;
26014;SDS011;13793;55.388;37.844;2024-01-15T06:33:37;43.63;;;22.60;;
26014;SDS011;13793;55.388;37.844;2024-01-15T06:36:08;45.93;;;24.57;;
26014;SDS011;13793;55.388;37.844;2024-01-15T06:38:39;46.40;;;24.60;;
26014;SDS011;13793;55.388;37.844;2024-01-15T06:41:13;45.23;;;25.17;;
26014;SDS011;13793;55.388;37.844;2024-01-15T06:43:44;46.13;;;23.50;;
26014;SDS011;13793;55.388;37.844;2024-01-15T06:46:21;45.57;;;25.17;;
26014;SDS011;13793;55.388;37.844;2024-01-15T06:48:52;42.60;;;23.95;;
26014;SDS011;13793;55.388;37.844;2024-01-15T06:51:23;41.77;;;23.40;;
26014;SDS011;13793;55.388;37.844;2024-01-15T06:53:54;44.93;;;24.27;;
26014;SDS011;13793;55.388;37.844;2024-01-15T06:56:24;42.97;;;23.87;;
26014;SDS011;13793;55.388;37.844;2024-01-15T06:58:55;47.33;;;25.63;;
26014;SDS011;13793;55.388;37.844;2024-01-15T07:01:26;41.50;;;23.60;;
26014;SDS011;13793;55.388;37.844;2024-01-15T07:03:57;44.80;;;24.57;;
26014;SDS011;13793;55.388;37.844;2024-01-15T07:06:28;44.33;;;23.70;;
26014;SDS011;13793;55.388;37.844;2024-01-15T07:08:59;43.37;;;24.50;;
26014;SDS011;13793;55.388;37.844;2024-01-15T07:11:30;41.90;;;23.40;;
26014;SDS011;13793;55.388;37.844;2024-01-15T07:14:01;39.03;;;22.97;;
26014;SDS011;13793;55.388;37.844;2024-01-15T07:16:32;39.20;;;22.63;;
26014;SDS011;13793;55.388;37.844;2024-01-15T07:19:03;36.63;;;22.60;;
26014;SDS011;13793;55.388;37.844;2024-01-15T07:21:34;41.20;;;23.70;;
26014;SDS011;13793;55.388;37.844;2024-01-15T07:24:05;41.00;;;23.47;;
26014;SDS011;13793;55.388;37.844;2024-01-15T07:26:36;43.13;;;23.33;;
26014;SDS011;13793;55.388;37.844;2024-01-15T07:29:06;37.37;;;21.97;;
26014;SDS011;13793;55.388;37.844;2024-01-15T07:31:37;40.90;;;22.97;;
26014;SDS011;13793;55.388;37.844;2024-01-15T07:34:08;38.70;;;21.53;;
26014;SDS011;13793;55.388;37.844;2024-01-15T07:36:39;38.17;;;22.13;;
26014;SDS011;13793;55.388;37.844;2024-01-15T07:39:10;37.60;;;21.07;;
26014;SDS011;13793;55.388;37.844;2024-01-15T07:41:42;38.67;;;21.87;;
26014;SDS011;13793;55.388;37.844;2024-01-15T07:44:13;38.57;;;22.97;;
26014;SDS011;13793;55.388;37.844;2024-01-15T07:46:48;40.47;;;22.53;;
26014;SDS011;13793;55.388;37.844;2024-01-15T07:49:18;37.93;;;21.97;;
26014;SDS011;13793;55.388;37.844;2024-01-15T07:51:49;40.13;;;22.63;;
26014;SDS011;13793;55.388;37.844;2024-01-15T07:54:20;36.03;;;21.17;;
26014;SDS011;13793;55.388;37.844;2024-01-15T07:56:55;37.37;;;21.60;;
26014;SDS011;13793;55.388;37.844;2024-01-15T07:59:30;37.17;;;21.63;;
26014;SDS011;13793;55.388;37.844;2024-01-15T08:02:01;36.10;;;20.37;;
26014;SDS011;13793;55.388;37.844;2024-01-15T08:04:32;35.40;;;20.10;;
26014;SDS011;13793;55.388;37.844;2024-01-15T08:07:02;32.53;;;20.53;;
26014;SDS011;13793;55.388;37.844;2024-01-15T08:09:35;35.80;;;21.57;;
26014;SDS011;13793;55.388;37.844;2024-01-15T08:12:06;34.17;;;21.23;;
26014;SDS011;13793;55.388;37.844;2024-01-15T08:14:39;36.97;;;21.13;;
26014;SDS011;13793;55.388;37.844;2024-01-15T08:17:09;35.17;;;20.67;;
26014;SDS011;13793;55.388;37.844;2024-01-15T08:19:40;34.27;;;19.57;;
26014;SDS011;13793;55.388;37.844;2024-01-15T08:22:12;36.47;;;19.97;;
26014;SDS011;13793;55.388;37.844;2024-01-15T08:24:43;34.90;;;20.00;;
26014;SDS011;13793;55.388;37.844;2024-01-15T08:27:14;30.67;;;19.67;;
26014;SDS011;13793;55.388;37.844;2024-01-15T08:29:45;32.87;;;18.67;;
26014;SDS011;13793;55.388;37.844;2024-01-15T08:32:16;31.93;;;19.40;;
26014;SDS011;13793;55.388;37.844;2024-01-15T08:34:47;31.53;;;18.53;;
26014;SDS011;13793;55.388;37.844;2024-01-15T08:37:19;31.20;;;18.93;;
26014;SDS011;13793;55.388;37.844;2024-01-15T08:39:50;32.20;;;20.93;;
26014;SDS011;13793;55.388;37.844;2024-01-15T08:42:21;29.07;;;18.50;;
26014;SDS011;13793;55.388;37.844;2024-01-15T08:44:53;28.00;;;17.90;;
26014;SDS011;13793;55.388;37.844;2024-01-15T08:47:24;30.47;;;18.00;;
26014;SDS011;13793;55.388;37.844;2024-01-15T08:49:55;30.47;;;19.03;;
26014;SDS011;13793;55.388;37.844;2024-01-15T08:52:25;31.73;;;19.37;;
26014;SDS011;13793;55.388;37.844;2024-01-15T08:54:56;31.10;;;18.90;;
26014;SDS011;13793;55.388;37.844;2024-01-15T08:57:29;35.63;;;20.40;;
26014;SDS011;13793;55.388;37.844;2024-01-15T08:59:59;34.33;;;20.00;;
26014;SDS011;13793;55.388;37.844;2024-01-15T09:02:31;32.93;;;19.33;;
26014;SDS011;13793;55.388;37.844;2024-01-15T09:05:02;33.70;;;19.80;;
26014;SDS011;13793;55.388;37.844;2024-01-15T09:07:33;34.30;;;20.03;;
26014;SDS011;13793;55.388;37.844;2024-01-15T09:10:04;34.50;;;21.10;;
26014;SDS011;13793;55.388;37.844;2024-01-15T09:12:35;33.37;;;21.03;;
26014;SDS011;13793;55.388;37.844;2024-01-15T09:15:08;31.10;;;19.77;;
26014;SDS011;13793;55.388;37.844;2024-01-15T09:17:39;31.23;;;19.57;;
26014;SDS011;13793;55.388;37.844;2024-01-15T09:20:10;29.77;;;19.17;;
26014;SDS011;13793;55.388;37.844;2024-01-15T09:22:41;28.50;;;19.10;;
26014;SDS011;13793;55.388;37.844;2024-01-15T09:25:13;28.50;;;18.33;;
26014;SDS011;13793;55.388;37.844;2024-01-15T09:27:44;32.40;;;19.77;;
26014;SDS011;13793;55.388;37.844;2024-01-15T09:30:15;31.20;;;18.93;;
26014;SDS011;13793;55.388;37.844;2024-01-15T09:32:46;30.43;;;18.47;;
26014;SDS011;13793;55.388;37.844;2024-01-15T09:35:17;31.53;;;19.47;;
26014;SDS011;13793;55.388;37.844;2024-01-15T09:37:48;32.03;;;19.20;;
26014;SDS011;13793;55.388;37.844;2024-01-15T09:40:19;34.00;;;20.10;;
26014;SDS011;13793;55.388;37.844;2024-01-15T09:42:51;30.10;;;19.17;;
26014;SDS011;13793;55.388;37.844;2024-01-15T09:45:22;29.27;;;18.57;;
26014;SDS011;13793;55.388;37.844;2024-01-15T09:47:53;30.47;;;19.70;;
26014;SDS011;13793;55.388;37.844;2024-01-15T09:50:24;31.47;;;19.80;;
26014;SDS011;13793;55.388;37.844;2024-01-15T09:52:55;31.97;;;19.70;;
26014;SDS011;13793;55.388;37.844;2024-01-15T09:55:26;30.20;;;18.47;;
26014;SDS011;13793;55.388;37.844;2024-01-15T09:57:57;31.60;;;18.97;;
26014;SDS011;13793;55.388;37.844;2024-01-15T10:00:30;28.87;;;18.27;;
26014;SDS011;13793;55.388;37.844;2024-01-15T10:03:04;30.63;;;18.10;;
26014;SDS011;13793;55.388;37.844;2024-01-15T10:05:35;29.23;;;17.83;;
26014;SDS011;13793;55.388;37.844;2024-01-15T10:08:06;28.60;;;17.90;;
26014;SDS011;13793;55.388;37.844;2024-01-15T10:10:39;29.30;;;18.17;;
26014;SDS011;13793;55.388;37.844;2024-01-15T10:13:10;29.77;;;17.43;;
26014;SDS011;13793;55.388;37.844;2024-01-15T10:15:41;29.23;;;18.20;;
26014;SDS011;13793;55.388;37.844;2024-01-15T10:18:16;27.73;;;17.63;;
26014;SDS011;13793;55.388;37.844;2024-01-15T10:20:48;28.87;;;18.60;;
26014;SDS011;13793;55.388;37.844;2024-01-15T10:23:19;26.60;;;18.37;;
26014;SDS011;13793;55.388;37.844;2024-01-15T10:25:50;29.80;;;18.47;;
26014;SDS011;13793;55.388;37.844;2024-01-15T10:28:21;29.47;;;18.30;;
26014;SDS011;13793;55.388;37.844;2024-01-15T10:30:53;29.40;;;17.93;;
26014;SDS011;13793;55.388;37.844;2024-01-15T10:33:25;30.37;;;18.73;;
26014;SDS011;13793;55.388;37.844;2024-01-15T10:35:58;32.10;;;18.80;;
26014;SDS011;13793;55.388;37.844;2024-01-15T10:38:29;31.60;;;19.50;;
26014;SDS011;13793;55.388;37.844;2024-01-15T10:41:00;31.97;;;18.80;;
26014;SDS011;13793;55.388;37.844;2024-01-15T10:43:32;29.53;;;18.83;;
26014;SDS011;13793;55.388;37.844;2024-01-15T10:46:03;28.97;;;17.83;;
26014;SDS011;13793;55.388;37.844;2024-01-15T10:48:34;30.73;;;18.90;;
26014;SDS011;13793;55.388;37.844;2024-01-15T10:51:05;32.60;;;19.30;;
26014;SDS011;13793;55.388;37.844;2024-01-15T10:53:38;31.23;;;19.10;;
26014;SDS011;13793;55.388;37.844;2024-01-15T10:56:09;33.07;;;18.83;;
26014;SDS011;13793;55.388;37.844;2024-01-15T10:58:40;30.00;;;18.67;;
26014;SDS011;13793;55.388;37.844;2024-01-15T11:01:12;28.50;;;18.13;;
26014;SDS011;13793;55.388;37.844;2024-01-15T11:03:43;29.80;;;18.83;;
26014;SDS011;13793;55.388;37.844;2024-01-15T11:06:18;30.23;;;18.37;;
26014;SDS011;13793;55.388;37.844;2024-01-15T11:08:49;29.80;;;18.23;;
26014;SDS011;13793;55.388;37.844;2024-01-15T11:11:22;34.17;;;18.50;;
26014;SDS011;13793;55.388;37.844;2024-01-15T11:13:52;30.20;;;18.00;;
26014;SDS011;13793;55.388;37.844;2024-01-15T11:16:25;29.10;;;17.60;;
26014;SDS011;13793;55.388;37.844;2024-01-15T11:21:32;28.43;;;17.70;;
26014;SDS011;13793;55.388;37.844;2024-01-15T11:24:04;28.93;;;18.47;;
26014;SDS011;13793;55.388;37.844;2024-01-15T11:26:37;32.47;;;19.13;;
26014;SDS011;13793;55.388;37.844;2024-01-15T11:29:29;30.37;;;18.47;;
26014;SDS011;13793;55.388;37.844;2024-01-15T11:32:04;31.17;;;18.43;;
26014;SDS011;13793;55.388;37.844;2024-01-15T11:34:53;33.17;;;18.50;;
26014;SDS011;13793;55.388;37.844;2024-01-15T11:37:29;31.43;;;18.73;;
26014;SDS011;13793;55.388;37.844;2024-01-15T11:40:20;29.00;;;17.53;;
26014;SDS011;13793;55.388;37.844;2024-01-15T11:42:51;32.53;;;19.40;;
26014;SDS011;13793;55.388;37.844;2024-01-15T11:45:23;29.20;;;18.07;;
26014;SDS011;13793;55.388;37.844;2024-01-15T11:48:08;31.20;;;19.07;;
26014;SDS011;13793;55.388;37.844;2024-01-15T11:50:47;30.67;;;17.97;;
26014;SDS011;13793;55.388;37.844;2024-01-15T11:53:40;31.73;;;18.47;;
26014;SDS011;13793;55.388;37.844;2024-01-15T11:56:17;29.87;;;17.43;;
26014;SDS011;13793;55.388;37.844;2024-01-15T11:58:49;30.13;;;18.30;;
26014;SDS011;13793;55.388;37.844;2024-01-15T12:01:20;29.80;;;18.13;;
26014;SDS011;13793;55.388;37.844;2024-01-15T12:03:52;32.93;;;19.20;;
26014;SDS011;13793;55.388;37.844;2024-01-15T12:06:23;30.30;;;18.97;;
26014;SDS011;13793;55.388;37.844;2024-01-15T12:09:05;30.73;;;18.23;;
26014;SDS011;13793;55.388;37.844;2024-01-15T12:11:36;32.67;;;19.47;;
26014;SDS011;13793;55.388;37.844;2024-01-15T12:14:08;32.50;;;19.50;;
26014;SDS011;13793;55.388;37.844;2024-01-15T12:16:39;29.70;;;17.33;;
26014;SDS011;13793;55.388;37.844;2024-01-15T12:19:10;32.07;;;18.83;;
26014;SDS011;13793;55.388;37.844;2024-01-15T12:21:41;33.50;;;18.63;;
26014;SDS011;13793;55.388;37.844;2024-01-15T12:24:12;32.60;;;18.77;;
26014;SDS011;13793;55.388;37.844;2024-01-15T12:26:44;32.60;;;19.03;;
26014;SDS011;13793;55.388;37.844;2024-01-15T12:29:18;32.93;;;18.53;;
26014;SDS011;13793;55.388;37.844;2024-01-15T12:31:53;33.47;;;19.23;;
26014;SDS011;13793;55.388;37.844;2024-01-15T12:34:24;31.37;;;19.17;;
26014;SDS011;13793;55.388;37.844;2024-01-15T12:36:59;32.63;;;19.63;;
26014;SDS011;13793;55.388;37.844;2024-01-15T12:39:30;33.93;;;19.63;;
26014;SDS011;13793;55.388;37.844;2024-01-15T12:42:01;33.67;;;20.47;;
26014;SDS011;13793;55.388;37.844;2024-01-15T12:44:32;31.53;;;18.77;;
26014;SDS011;13793;55.388;37.844;2024-01-15T12:47:06;33.23;;;18.90;;
26014;SDS011;13793;55.388;37.844;2024-01-15T12:49:37;33.63;;;19.33;;
26014;SDS011;13793;55.388;37.844;2024-01-15T12:52:11;31.17;;;19.13;;
26014;SDS011;13793;55.388;37.844;2024-01-15T12:54:41;33.30;;;19.77;;
26014;SDS011;13793;55.388;37.844;2024-01-15T12:57:12;32.07;;;19.93;;
26014;SDS011;13793;55.388;37.844;2024-01-15T12:59:43;34.20;;;19.70;;
26014;SDS011;13793;55.388;37.844;2024-01-15T13:02:14;34.07;;;20.57;;
26014;SDS011;13793;55.388;37.844;2024-01-15T13:04:45;30.43;;;18.77;;
26014;SDS011;13793;55.388;37.844;2024-01-15T13:07:16;31.43;;;19.33;;
26014;SDS011;13793;55.388;37.844;2024-01-15T13:09:47;32.67;;;19.27;;
26014;SDS011;13793;55.388;37.844;2024-01-15T13:12:20;31.73;;;19.03;;
26014;SDS011;13793;55.388;37.844;2024-01-15T13:14:51;32.77;;;18.73;;
26014;SDS011;13793;55.388;37.844;2024-01-15T13:17:22;30.13;;;19.03;;
26014;SDS011;13793;55.388;37.844;2024-01-15T13:19:53;33.10;;;19.73;;
26014;SDS011;13793;55.388;37.844;2024-01-15T13:22:24;33.20;;;20.37;;
26014;SDS011;13793;55.388;37.844;2024-01-15T13:24:56;34.27;;;19.57;;
26014;SDS011;13793;55.388;37.844;2024-01-15T13:27:31;34.53;;;19.87;;
26014;SDS011;13793;55.388;37.844;2024-01-15T13:30:04;32.17;;;19.63;;
26014;SDS011;13793;55.388;37.844;2024-01-15T13:32:36;32.43;;;19.20;;
26014;SDS011;13793;55.388;37.844;2024-01-15T13:35:07;32.40;;;19.27;;
26014;SDS011;13793;55.388;37.844;2024-01-15T13:37:40;34.43;;;20.23;;
26014;SDS011;13793;55.388;37.844;2024-01-15T13:40:11;32.37;;;19.63;;
26014;SDS011;13793;55.388;37.844;2024-01-15T13:42:44;36.17;;;20.40;;
26014;SDS011;13793;55.388;37.844;2024-01-15T13:45:14;36.07;;;20.50;;
26014;SDS011;13793;55.388;37.844;2024-01-15T13:47:45;32.17;;;19.37;;
26014;SDS011;13793;55.388;37.844;2024-01-15T13:50:16;34.00;;;19.73;;
26014;SDS011;13793;55.388;37.844;2024-01-15T13:52:47;35.13;;;19.93;;
26014;SDS011;13793;55.388;37.844;2024-01-15T13:55:18;34.40;;;19.90;;
26014;SDS011;13793;55.388;37.844;2024-01-15T13:57:49;34.60;;;20.53;;
26014;SDS011;13793;55.388;37.844;2024-01-15T14:00:20;33.13;;;19.97;;
26014;SDS011;13793;55.388;37.844;2024-01-15T14:02:52;36.20;;;21.20;;
26014;SDS011;13793;55.388;37.844;2024-01-15T14:05:22;33.47;;;20.70;;
26014;SDS011;13793;55.388;37.844;2024-01-15T14:07:53;37.77;;;21.00;;
26014;SDS011;13793;55.388;37.844;2024-01-15T14:10:24;36.47;;;21.23;;
26014;SDS011;13793;55.388;37.844;2024-01-15T14:12:55;38.23;;;21.97;;
26014;SDS011;13793;55.388;37.844;2024-01-15T14:15:26;35.07;;;21.30;;
26014;SDS011;13793;55.388;37.844;2024-01-15T14:17:57;34.70;;;20.13;;
26014;SDS011;13793;55.388;37.844;2024-01-15T14:20:29;38.90;;;21.80;;
26014;SDS011;13793;55.388;37.844;2024-01-15T14:23:00;36.77;;;21.67;;
26014;SDS011;13793;55.388;37.844;2024-01-15T14:25:32;39.63;;;20.03;;
26014;SDS011;13793;55.388;37.844;2024-01-15T14:28:03;39.77;;;21.90;;
26014;SDS011;13793;55.388;37.844;2024-01-15T14:30:35;35.67;;;21.27;;
26014;SDS011;13793;55.388;37.844;2024-01-15T14:33:06;38.33;;;21.73;;
26014;SDS011;13793;55.388;37.844;2024-01-15T14:35:39;38.83;;;22.73;;